Time;durP1;ratioP1;P1;durP2;ratioP2;P2;SDS_P1;SDS_P2;PMS_P1;PMS_P2;Temp;Humidity;BMP_temperature;BMP_pressure;BME280_temperature;BME280_humidity;BME280_pressure;Samples;Min_cycle;Max_cycle;Signal;HPM_P1;HPM_P2
2022/05/11 00:00:39;;;;;;;1.75;1.45;;;7.60;99.90;;;;;;5074476;28;20235;-74
2022/05/11 00:03:05;;;;;;;0.70;0.70;;;7.50;99.90;;;;;;5073469;28;20261;-74
2022/05/11 00:05:32;;;;;;;0.70;0.70;;;7.50;99.90;;;;;;5073278;28;20193;-72
2022/05/11 00:07:57;;;;;;;0.60;0.60;;;7.50;99.90;;;;;;5073318;28;20246;-74
2022/05/11 00:10:24;;;;;;;0.60;0.60;;;7.40;99.90;;;;;;5074420;28;20193;-73
2022/05/11 00:12:50;;;;;;;0.70;0.70;;;7.20;99.90;;;;;;5073233;28;20197;-72
2022/05/11 00:15:19;;;;;;;0.60;0.60;;;7.10;99.90;;;;;;5074413;28;20262;-72
2022/05/11 00:17:44;;;;;;;0.60;0.60;;;7.00;99.90;;;;;;5073025;28;20229;-73
2022/05/11 00:20:11;;;;;;;0.60;0.60;;;6.90;99.90;;;;;;5074416;28;20618;-72
2022/05/11 00:22:37;;;;;;;0.90;0.90;;;6.80;99.90;;;;;;5072471;28;20211;-72
2022/05/11 00:25:05;;;;;;;1.02;1.02;;;6.70;99.90;;;;;;5074312;28;20696;-73
2022/05/11 00:27:31;;;;;;;0.60;0.60;;;6.60;99.90;;;;;;5073026;28;20224;-74
2022/05/11 00:29:58;;;;;;;0.88;0.88;;;6.50;99.90;;;;;;5073018;28;20224;-72
2022/05/11 00:32:25;;;;;;;0.70;0.70;;;6.40;99.90;;;;;;5073864;28;20675;-75
2022/05/11 00:34:52;;;;;;;0.60;0.60;;;6.20;99.90;;;;;;5073958;28;20272;-73
2022/05/11 00:37:18;;;;;;;0.70;0.70;;;6.10;99.90;;;;;;5074478;28;20643;-73
2022/05/11 00:39:44;;;;;;;0.65;0.65;;;6.10;99.90;;;;;;5074326;28;20663;-72
2022/05/11 00:42:10;;;;;;;0.70;0.70;;;6.10;99.90;;;;;;5072697;28;20193;-73
2022/05/11 00:44:36;;;;;;;0.70;0.70;;;5.90;99.90;;;;;;5074214;28;20212;-73
2022/05/11 00:47:07;;;;;;;0.70;0.70;;;5.80;99.90;;;;;;5073479;28;20193;-72
2022/05/11 00:49:43;;;;;;;0.80;0.80;;;5.70;99.90;;;;;;5073685;28;20648;-72
2022/05/11 00:52:14;;;;;;;0.60;0.60;;;5.60;99.90;;;;;;5073667;28;20648;-72
2022/05/11 00:54:45;;;;;;;0.85;0.85;;;5.70;99.90;;;;;;5072299;28;20223;-73
2022/05/11 00:57:16;;;;;;;0.65;0.65;;;5.70;99.90;;;;;;5072622;28;20287;-72
2022/05/11 00:59:45;;;;;;;0.60;0.60;;;5.60;99.90;;;;;;5074067;28;20188;-73
2022/05/11 01:02:12;;;;;;;0.60;0.60;;;5.50;99.90;;;;;;5074231;28;20238;-71
2022/05/11 01:04:40;;;;;;;0.70;0.70;;;5.40;99.90;;;;;;5073754;28;20216;-72
2022/05/11 01:07:10;;;;;;;0.75;0.75;;;5.30;99.90;;;;;;5072703;28;20196;-72
2022/05/11 01:09:36;;;;;;;0.70;0.70;;;5.30;99.90;;;;;;5072227;28;20536;-72
2022/05/11 01:12:06;;;;;;;1.60;1.10;;;5.20;99.90;;;;;;5073762;28;20238;-71
2022/05/11 01:14:35;;;;;;;1.00;1.00;;;5.20;99.90;;;;;;5073601;28;20644;-73
2022/05/11 01:17:01;;;;;;;0.70;0.70;;;5.10;99.90;;;;;;5073638;28;20259;-73
2022/05/11 01:19:34;;;;;;;0.70;0.70;;;5.30;99.90;;;;;;5071686;28;20208;-73
2022/05/11 01:22:32;;;;;;;0.85;0.85;;;5.30;99.90;;;;;;5063027;28;20198;-74
2022/05/11 01:24:58;;;;;;;0.85;0.85;;;5.20;99.90;;;;;;5053431;28;20309;-73
2022/05/11 01:27:42;;;;;;;0.70;0.70;;;5.20;99.90;;;;;;5053229;28;20687;-73
2022/05/11 01:30:15;;;;;;;0.70;0.70;;;5.10;99.90;;;;;;5052107;28;20563;-73
2022/05/11 01:32:42;;;;;;;0.60;0.60;;;5.00;99.90;;;;;;5053021;28;20240;-73
2022/05/11 01:35:29;;;;;;;0.70;0.70;;;4.90;99.90;;;;;;5053272;28;20632;-73
2022/05/11 01:38:01;;;;;;;0.80;0.80;;;4.80;99.90;;;;;;5053242;28;20672;-73
2022/05/11 01:40:27;;;;;;;0.80;0.80;;;4.70;99.90;;;;;;5051742;28;20284;-73
2022/05/11 01:42:53;;;;;;;0.80;0.80;;;4.70;99.90;;;;;;5053009;28;20339;-73
2022/05/11 01:45:18;;;;;;;0.70;0.70;;;4.70;99.90;;;;;;5053134;28;20193;-73
2022/05/11 01:47:44;;;;;;;0.80;0.80;;;4.60;99.90;;;;;;5052369;28;20268;-73
2022/05/11 01:50:10;;;;;;;0.60;0.60;;;4.50;99.90;;;;;;5051975;28;20197;-73
2022/05/11 01:52:35;;;;;;;0.70;0.70;;;4.60;99.90;;;;;;5053067;28;20560;-73
2022/05/11 01:55:01;;;;;;;0.75;0.75;;;4.50;99.90;;;;;;5051791;28;20196;-73
2022/05/11 01:57:30;;;;;;;0.70;0.70;;;4.50;99.90;;;;;;5053122;28;20333;-73
2022/05/11 01:59:55;;;;;;;0.80;0.80;;;4.50;99.90;;;;;;5065765;28;20197;-73
2022/05/11 02:02:21;;;;;;;0.63;0.63;;;4.50;99.90;;;;;;5055581;28;20194;-73
2022/05/11 02:07:49;;;;;;;0.77;0.77;;;4.40;99.90;;;;;;5052698;28;20292;-73
2022/05/11 02:10:15;;;;;;;0.80;0.80;;;4.50;99.90;;;;;;5085132;28;20197;-73
2022/05/11 02:12:41;;;;;;;0.70;0.70;;;4.60;99.90;;;;;;5052504;28;20737;-73
2022/05/11 02:15:08;;;;;;;1.38;1.27;;;4.50;99.90;;;;;;5067695;28;20258;-72
2022/05/11 02:17:34;;;;;;;0.65;0.65;;;4.50;99.90;;;;;;5072184;28;20203;-71
2022/05/11 02:20:00;;;;;;;0.80;0.80;;;4.40;99.90;;;;;;5072570;28;20432;-73
2022/05/11 02:22:26;;;;;;;0.70;0.70;;;4.40;99.90;;;;;;5058428;28;20571;-73
2022/05/11 02:24:51;;;;;;;0.70;0.70;;;4.30;99.90;;;;;;5052580;28;20280;-73
2022/05/11 02:27:17;;;;;;;0.68;0.68;;;4.40;99.90;;;;;;5052522;28;20544;-73
2022/05/11 02:29:43;;;;;;;1.30;1.20;;;4.50;99.90;;;;;;5052504;28;20193;-73
2022/05/11 02:32:09;;;;;;;0.70;0.70;;;4.50;99.90;;;;;;5052374;28;20225;-73
2022/05/11 02:37:18;;;;;;;1.08;1.08;;;4.40;99.90;;;;;;5052453;28;20201;-73
2022/05/11 02:39:45;;;;;;;0.80;0.80;;;4.40;99.90;;;;;;5052351;28;20644;-73
2022/05/11 02:42:11;;;;;;;1.65;1.55;;;4.40;99.90;;;;;;5052412;28;20265;-71
2022/05/11 02:44:37;;;;;;;0.63;0.63;;;4.40;99.90;;;;;;5052146;28;20243;-73
2022/05/11 02:47:03;;;;;;;0.70;0.70;;;4.40;99.90;;;;;;5052370;28;20274;-73
2022/05/11 02:49:28;;;;;;;0.60;0.60;;;4.40;99.90;;;;;;5052226;28;20205;-73
2022/05/11 02:51:54;;;;;;;3.47;1.13;;;4.30;99.90;;;;;;5052170;28;20201;-73
2022/05/11 02:54:20;;;;;;;0.80;0.80;;;4.40;99.90;;;;;;5052228;28;20652;-73
2022/05/11 02:56:46;;;;;;;0.88;0.88;;;4.30;99.90;;;;;;5068581;28;20620;-73
2022/05/11 02:59:11;;;;;;;0.70;0.70;;;4.30;99.90;;;;;;5073136;28;20663;-73
2022/05/11 03:01:37;;;;;;;0.50;0.50;;;4.30;99.90;;;;;;5065946;28;20286;-73
2022/05/11 03:04:03;;;;;;;0.70;0.70;;;4.50;99.90;;;;;;5072339;28;20327;-73
2022/05/11 03:06:29;;;;;;;0.60;0.60;;;4.50;99.90;;;;;;5075800;28;20200;-73
2022/05/11 03:08:54;;;;;;;0.60;0.60;;;4.40;99.90;;;;;;5074476;28;20197;-73
2022/05/11 03:11:20;;;;;;;0.70;0.70;;;4.30;99.90;;;;;;5075552;28;20211;-73
2022/05/11 03:13:46;;;;;;;0.77;0.77;;;4.30;99.90;;;;;;5074307;28;20285;-73
2022/05/11 03:16:11;;;;;;;0.68;0.68;;;4.30;99.90;;;;;;5074341;28;20193;-73
2022/05/11 03:18:37;;;;;;;0.60;0.60;;;4.20;99.90;;;;;;5075602;28;20220;-73
2022/05/11 03:21:03;;;;;;;0.70;0.70;;;4.20;99.90;;;;;;5073257;28;20188;-73
2022/05/11 03:23:29;;;;;;;0.80;0.80;;;4.20;99.90;;;;;;5055488;28;20622;-73
2022/05/11 03:25:55;;;;;;;0.70;0.70;;;4.20;99.90;;;;;;5055719;28;20186;-73
2022/05/11 03:28:21;;;;;;;0.80;0.80;;;4.30;99.90;;;;;;5055506;28;20213;-73
2022/05/11 03:30:46;;;;;;;0.63;0.63;;;4.30;99.90;;;;;;5053990;28;20197;-73
2022/05/11 03:35:56;;;;;;;0.82;0.82;;;4.40;99.90;;;;;;5055650;28;20199;-73
2022/05/11 03:38:22;;;;;;;1.65;1.55;;;4.50;99.90;;;;;;5055030;28;20197;-73
2022/05/11 03:40:48;;;;;;;0.70;0.70;;;4.70;99.90;;;;;;5065477;28;20225;-73
2022/05/11 03:43:13;;;;;;;0.70;0.70;;;4.90;99.90;;;;;;5075193;28;20679;-70
2022/05/11 03:45:39;;;;;;;0.65;0.65;;;5.00;99.90;;;;;;5074872;28;20197;-73
2022/05/11 03:48:05;;;;;;;0.70;0.70;;;5.30;99.90;;;;;;5073843;28;20287;-73
2022/05/11 03:50:32;;;;;;;0.80;0.80;;;5.40;99.90;;;;;;5074966;28;20185;-73
2022/05/11 03:52:58;;;;;;;0.80;0.80;;;5.40;99.90;;;;;;5075282;28;20521;-73
2022/05/11 03:55:26;;;;;;;0.70;0.70;;;5.40;99.90;;;;;;5074795;28;20204;-73
2022/05/11 03:57:51;;;;;;;0.60;0.60;;;5.50;99.90;;;;;;5074952;28;20216;-73
2022/05/11 04:00:21;;;;;;;0.80;0.80;;;5.50;99.90;;;;;;5058280;28;20206;-73
2022/05/11 04:02:47;;;;;;;0.60;0.60;;;5.70;99.90;;;;;;5054624;28;20193;-72
2022/05/11 04:05:14;;;;;;;0.70;0.70;;;5.80;99.90;;;;;;5054758;28;20194;-71
2022/05/11 04:07:40;;;;;;;0.68;0.68;;;5.90;99.90;;;;;;5070075;28;20197;-71
2022/05/11 04:10:08;;;;;;;0.70;0.70;;;6.10;99.90;;;;;;5074120;28;20200;-71
2022/05/11 04:12:34;;;;;;;0.80;0.80;;;6.20;99.90;;;;;;5074860;28;20207;-71
2022/05/11 04:15:00;;;;;;;0.90;0.90;;;6.30;99.90;;;;;;5075004;28;20196;-71
2022/05/11 04:17:26;;;;;;;0.60;0.60;;;6.30;99.90;;;;;;5074640;28;20272;-71
2022/05/11 04:19:53;;;;;;;0.88;0.88;;;6.50;99.90;;;;;;5073487;28;20245;-71
2022/05/11 04:22:18;;;;;;;1.95;1.85;;;6.70;99.90;;;;;;5060571;28;20664;-71
2022/05/11 04:24:44;;;;;;;0.70;0.70;;;6.90;99.90;;;;;;5053221;28;20253;-71
2022/05/11 04:27:10;;;;;;;0.82;0.80;;;7.00;99.90;;;;;;5054196;28;20263;-71
2022/05/11 04:29:37;;;;;;;0.70;0.70;;;7.20;99.90;;;;;;5054483;28;20660;-71
2022/05/11 04:32:02;;;;;;;0.70;0.70;;;7.30;99.90;;;;;;5053207;28;20217;-70
2022/05/11 04:34:28;;;;;;;0.68;0.68;;;7.50;99.90;;;;;;5054373;28;20327;-70
2022/05/11 04:36:54;;;;;;;0.60;0.60;;;7.60;99.90;;;;;;5063118;28;20200;-70
2022/05/11 04:39:19;;;;;;;0.70;0.70;;;7.80;99.90;;;;;;5072509;28;20204;-71
2022/05/11 04:41:45;;;;;;;1.60;0.90;;;8.00;99.90;;;;;;5073982;28;20595;-71
2022/05/11 04:44:11;;;;;;;0.70;0.70;;;8.20;99.90;;;;;;5072392;28;20244;-70
2022/05/11 04:46:38;;;;;;;0.60;0.60;;;8.40;99.90;;;;;;5074002;28;20192;-72
2022/05/11 04:49:17;;;;;;;0.60;0.60;;;8.50;99.90;;;;;;5074012;28;20231;-72
2022/05/11 04:51:43;;;;;;;0.70;0.70;;;8.60;99.90;;;;;;5074157;28;20197;-72
2022/05/11 04:54:09;;;;;;;0.60;0.60;;;8.80;99.90;;;;;;5072675;28;20214;-72
2022/05/11 04:56:37;;;;;;;0.65;0.65;;;8.90;99.90;;;;;;5073670;28;20249;-72
2022/05/11 04:59:06;;;;;;;1.17;0.98;;;8.90;99.90;;;;;;5073650;28;20189;-71
2022/05/11 05:01:33;;;;;;;0.70;0.70;;;9.00;99.90;;;;;;5071917;28;20200;-71
2022/05/11 05:03:58;;;;;;;0.60;0.60;;;9.10;99.90;;;;;;5073409;28;20205;-71
2022/05/11 05:06:25;;;;;;;0.60;0.60;;;9.20;99.90;;;;;;5071903;28;20204;-71
2022/05/11 05:09:00;;;;;;;0.50;0.50;;;9.30;99.90;;;;;;5073672;28;20189;-72
2022/05/11 05:11:26;;;;;;;0.60;0.60;;;9.40;99.90;;;;;;5073527;28;20675;-70
2022/05/11 05:13:52;;;;;;;0.85;0.85;;;9.50;99.90;;;;;;5072286;28;20200;-72
2022/05/11 05:16:21;;;;;;;10.60;1.77;;;9.60;99.90;;;;;;5072261;28;20200;-72
2022/05/11 05:18:47;;;;;;;0.60;0.60;;;9.70;99.90;;;;;;5071075;28;20209;-72
2022/05/11 05:21:13;;;;;;;0.60;0.60;;;9.90;99.90;;;;;;5068205;28;20211;-69
2022/05/11 05:23:41;;;;;;;1.27;1.17;;;10.00;99.90;;;;;;5053197;28;20209;-72
2022/05/11 05:26:07;;;;;;;1.33;1.23;;;10.10;99.90;;;;;;5053370;28;20194;-72
2022/05/11 05:31:26;;;;;;;0.63;0.63;;;10.40;99.90;;;;;;5053013;28;20224;-71
2022/05/11 05:33:58;;;;;;;1.00;1.00;;;10.40;99.90;;;;;;5085315;28;20275;-72
2022/05/11 05:36:24;;;;;;;0.52;0.52;;;10.60;99.90;;;;;;5052941;28;20232;-71
2022/05/11 05:38:52;;;;;;;0.60;0.60;;;10.70;99.90;;;;;;5051927;28;20251;-71
2022/05/11 05:41:18;;;;;;;0.93;0.77;;;10.80;99.90;;;;;;5053002;28;20198;-71
2022/05/11 05:43:53;;;;;;;0.70;0.70;;;10.90;99.90;;;;;;5055597;28;20263;-72
2022/05/11 05:46:19;;;;;;;0.60;0.60;;;10.90;99.90;;;;;;5073084;28;20193;-72
2022/05/11 05:48:48;;;;;;;0.65;0.65;;;11.10;99.90;;;;;;5072960;28;20192;-72
2022/05/11 05:51:16;;;;;;;0.63;0.63;;;11.20;99.90;;;;;;5072867;28;20191;-72
2022/05/11 05:53:45;;;;;;;0.75;0.75;;;11.30;99.90;;;;;;5072744;28;20207;-72
2022/05/11 05:56:15;;;;;;;0.40;0.40;;;11.50;99.90;;;;;;5072862;28;20197;-72
2022/05/11 05:58:42;;;;;;;0.60;0.60;;;11.50;99.90;;;;;;5072732;28;20207;-72
2022/05/11 06:01:11;;;;;;;0.70;0.70;;;11.70;99.90;;;;;;5072872;28;20534;-72
2022/05/11 06:03:37;;;;;;;0.60;0.60;;;11.90;99.90;;;;;;5059199;28;20205;-72
2022/05/11 06:06:07;;;;;;;0.52;0.52;;;12.10;99.90;;;;;;5052758;28;20202;-72
2022/05/11 06:08:34;;;;;;;0.60;0.60;;;12.00;99.90;;;;;;5052508;28;20548;-73
2022/05/11 06:11:01;;;;;;;0.90;0.90;;;11.80;99.90;;;;;;5052722;28;20623;-71
2022/05/11 06:13:33;;;;;;;1.05;0.60;;;11.70;99.90;;;;;;5052377;28;20190;-73
2022/05/11 06:16:01;;;;;;;0.60;0.60;;;11.70;99.90;;;;;;5052715;28;20193;-73
2022/05/11 06:18:27;;;;;;;0.50;0.50;;;11.60;99.90;;;;;;5087423;28;20575;-72
2022/05/11 06:20:59;;;;;;;0.50;0.50;;;11.60;99.90;;;;;;5084371;28;20201;-72
2022/05/11 06:23:32;;;;;;;0.50;0.50;;;11.70;99.90;;;;;;5084678;28;20660;-72
2022/05/11 06:25:58;;;;;;;0.60;0.60;;;11.90;99.90;;;;;;5050893;28;20204;-72
2022/05/11 06:28:23;;;;;;;0.52;0.52;;;11.90;99.90;;;;;;5084258;28;20194;-73
2022/05/11 06:30:49;;;;;;;0.50;0.50;;;12.00;99.90;;;;;;5052042;28;20283;-72
2022/05/11 06:33:15;;;;;;;1.27;1.20;;;12.30;99.90;;;;;;5053034;28;20209;-72
2022/05/11 06:35:40;;;;;;;1.00;0.93;;;12.20;99.90;;;;;;5056183;28;20285;-72
2022/05/11 06:38:09;;;;;;;0.75;0.75;;;12.10;99.90;;;;;;5054931;28;20197;-72
2022/05/11 06:40:34;;;;;;;0.50;0.50;;;12.00;99.90;;;;;;5062497;28;20288;-72
2022/05/11 06:43:01;;;;;;;0.50;0.50;;;11.80;99.90;;;;;;5076172;28;20351;-72
2022/05/11 06:45:28;;;;;;;0.85;0.80;;;11.90;99.90;;;;;;5076072;28;20189;-73
2022/05/11 06:47:53;;;;;;;0.50;0.50;;;11.90;99.90;;;;;;5076186;28;20189;-73
2022/05/11 06:50:21;;;;;;;0.60;0.60;;;12.10;99.90;;;;;;5076069;28;20200;-72
2022/05/11 06:52:46;;;;;;;1.45;1.35;;;12.30;99.90;;;;;;5076205;28;20193;-73
2022/05/11 07:00:41;;;;;;;0.50;0.50;;;12.60;99.90;;;;;;5075634;28;20211;-70
2022/05/11 07:03:06;;;;;;;0.70;0.70;;;12.70;99.90;;;;;;5075830;28;20276;-70
2022/05/11 07:05:34;;;;;;;0.63;0.63;;;13.00;99.90;;;;;;5075718;28;20216;-69
2022/05/11 07:08:01;;;;;;;0.50;0.50;;;13.40;99.90;;;;;;5074454;28;20196;-71
2022/05/11 07:10:26;;;;;;;0.50;0.50;;;13.80;99.90;;;;;;5075838;28;20201;-71
2022/05/11 07:12:52;;;;;;;0.60;0.60;;;13.90;99.90;;;;;;5075985;28;20193;-70
2022/05/11 07:15:20;;;;;;;19.95;1.48;;;13.70;99.90;;;;;;5076293;28;20555;-70
2022/05/11 07:17:49;;;;;;;0.52;0.52;;;13.60;99.90;;;;;;5075831;28;20294;-70
2022/05/11 07:20:29;;;;;;;0.50;0.50;;;13.20;99.90;;;;;;5076054;28;20196;-73
2022/05/11 07:22:55;;;;;;;0.68;0.68;;;12.90;99.90;;;;;;5057843;28;20201;-73
2022/05/11 07:25:24;;;;;;;0.73;0.73;;;12.50;99.90;;;;;;5062122;28;20197;-72
2022/05/11 07:27:53;;;;;;;0.50;0.50;;;12.20;99.90;;;;;;5075623;28;20273;-72
2022/05/11 07:30:23;;;;;;;0.50;0.50;;;12.10;99.90;;;;;;5075315;28;20556;-73
2022/05/11 07:32:48;;;;;;;0.70;0.70;;;12.20;99.90;;;;;;5075377;28;20354;-72
2022/05/11 07:35:14;;;;;;;0.80;0.80;;;12.30;99.90;;;;;;5075322;28;20714;-73
2022/05/11 07:37:40;;;;;;;0.40;0.40;;;12.40;99.90;;;;;;5075276;28;20201;-73
2022/05/11 07:40:08;;;;;;;0.73;0.73;;;12.70;99.90;;;;;;5075619;28;20185;-73
2022/05/11 07:42:36;;;;;;;0.50;0.50;;;13.30;99.90;;;;;;5075486;28;20729;-73
2022/05/11 07:45:03;;;;;;;0.43;0.43;;;13.80;99.90;;;;;;5074346;28;20254;-73
2022/05/11 07:47:33;;;;;;;0.50;0.50;;;14.10;99.90;;;;;;5074899;28;20644;-71
2022/05/11 07:49:58;;;;;;;0.70;0.70;;;14.00;99.90;;;;;;5073907;28;20567;-71
2022/05/11 07:52:24;;;;;;;0.40;0.40;;;13.90;99.90;;;;;;5075468;28;20287;-73
2022/05/11 07:54:50;;;;;;;0.50;0.50;;;13.40;99.90;;;;;;5075218;28;20539;-74
2022/05/11 08:00:00;;;;;;;0.65;0.65;;;13.30;99.90;;;;;;5075288;28;20242;-73
2022/05/11 08:02:28;;;;;;;0.50;0.50;;;13.20;99.90;;;;;;5073063;28;20193;-73
2022/05/11 08:04:59;;;;;;;0.47;0.47;;;13.20;99.90;;;;;;5073866;28;20705;-74
2022/05/11 08:07:40;;;;;;;0.80;0.80;;;13.30;99.90;;;;;;5073737;28;20193;-74
2022/05/11 08:10:21;;;;;;;0.45;0.45;;;13.30;99.90;;;;;;5075181;28;20192;-72
2022/05/11 08:12:47;;;;;;;11.18;1.30;;;13.70;99.90;;;;;;5074501;28;20219;-73
2022/05/11 08:15:15;;;;;;;0.73;0.73;;;14.30;99.90;;;;;;5074903;28;20671;-73
2022/05/11 08:17:43;;;;;;;0.90;0.60;;;14.40;99.90;;;;;;5074731;28;20192;-73
2022/05/11 08:20:14;;;;;;;0.68;0.68;;;14.40;99.90;;;;;;5073629;28;20200;-73
2022/05/11 08:22:42;;;;;;;0.90;0.90;;;14.60;99.90;;;;;;5058634;28;20586;-74
2022/05/11 08:25:09;;;;;;;0.43;0.43;;;14.40;99.90;;;;;;5053540;28;20665;-74
2022/05/11 08:27:35;;;;;;;0.77;0.77;;;14.50;99.90;;;;;;5054720;28;20560;-74
2022/05/11 08:35:32;;;;;;;0.60;0.60;;;15.60;99.90;;;;;;5074889;28;20334;-73
2022/05/11 08:37:57;;;;;;;0.50;0.50;;;16.00;99.90;;;;;;5074623;28;20193;-74
2022/05/11 08:40:36;;;;;;;0.40;0.40;;;16.10;99.90;;;;;;5073549;28;20212;-74
2022/05/11 08:43:02;;;;;;;0.35;0.35;;;15.60;99.90;;;;;;5073994;28;20200;-74
2022/05/11 08:45:39;;;;;;;0.47;0.47;;;15.30;99.90;;;;;;5074215;28;20275;-74
2022/05/11 08:48:09;;;;;;;1.17;0.70;;;15.20;99.90;;;;;;5072974;28;20204;-74
2022/05/11 08:50:37;;;;;;;0.52;0.52;;;15.20;99.90;;;;;;5074097;28;20238;-74
2022/05/11 08:53:22;;;;;;;0.40;0.40;;;15.50;99.90;;;;;;5055644;28;20651;-74
2022/05/11 08:55:50;;;;;;;0.43;0.43;;;15.50;99.90;;;;;;5053918;28;20213;-74
2022/05/11 08:58:24;;;;;;;1.08;0.98;;;15.30;99.90;;;;;;5054305;28;20194;-75
2022/05/11 09:00:53;;;;;;;0.40;0.40;;;15.30;99.90;;;;;;5052768;28;20212;-74
2022/05/11 09:03:34;;;;;;;0.32;0.32;;;15.00;99.90;;;;;;5053763;28;20240;-74
2022/05/11 09:06:27;;;;;;;0.85;0.60;;;15.00;99.90;;;;;;5054070;28;20201;-74
2022/05/11 09:08:54;;;;;;;0.55;0.55;;;14.90;99.90;;;;;;5053616;28;20201;-74
2022/05/11 09:11:32;;;;;;;1.02;0.88;;;14.70;99.90;;;;;;5053688;28;20205;-74
2022/05/11 09:14:00;;;;;;;0.60;0.60;;;14.70;99.90;;;;;;5053668;28;20652;-74
2022/05/11 09:16:36;;;;;;;0.60;0.60;;;14.90;99.90;;;;;;5086093;28;20247;-74
2022/05/11 09:19:14;;;;;;;0.50;0.50;;;15.20;99.90;;;;;;5070087;28;20686;-75
2022/05/11 09:21:47;;;;;;;4.95;1.48;;;15.50;99.90;;;;;;5065896;28;20201;-74
2022/05/11 09:24:43;;;;;;;1.38;1.27;;;15.80;99.90;;;;;;5053554;28;20209;-74
2022/05/11 09:27:20;;;;;;;0.50;0.50;;;16.10;99.90;;;;;;5053556;28;20192;-75
2022/05/11 09:29:53;;;;;;;0.98;0.75;;;16.20;99.90;;;;;;5063640;28;20246;-74
2022/05/11 09:32:29;;;;;;;0.50;0.50;;;16.00;99.90;;;;;;5073530;28;20267;-73
2022/05/11 09:34:55;;;;;;;0.40;0.40;;;15.70;99.90;;;;;;5073369;28;20261;-74
2022/05/11 09:37:34;;;;;;;1.77;1.33;;;15.40;99.90;;;;;;5071976;28;20228;-74
2022/05/11 09:40:12;;;;;;;0.57;0.57;;;15.10;99.90;;;;;;5072160;28;20200;-74
2022/05/11 09:43:00;;;;;;;0.73;0.52;;;14.80;99.90;;;;;;5073333;28;20192;-74
2022/05/11 09:45:40;;;;;;;2.92;1.13;;;14.70;99.90;;;;;;5073158;28;20283;-74
2022/05/11 09:48:18;;;;;;;0.40;0.40;;;14.80;99.90;;;;;;5073086;28;20185;-74
2022/05/11 09:50:45;;;;;;;0.30;0.30;;;14.80;99.90;;;;;;5073339;28;20195;-74
2022/05/11 09:53:28;;;;;;;0.40;0.40;;;14.60;99.90;;;;;;5072138;28;20563;-74
2022/05/11 09:55:55;;;;;;;0.77;0.77;;;14.50;99.90;;;;;;5071611;28;20205;-74
2022/05/11 09:58:32;;;;;;;2.85;2.05;;;14.30;99.90;;;;;;5073074;28;20204;-73
2022/05/11 10:01:13;;;;;;;0.98;0.90;;;14.50;99.90;;;;;;5073196;28;20196;-74
2022/05/11 10:03:50;;;;;;;0.60;0.60;;;14.30;99.90;;;;;;5072992;28;20214;-73
2022/05/11 10:06:18;;;;;;;0.80;0.70;;;14.20;99.90;;;;;;5071835;28;20192;-74
2022/05/11 10:08:45;;;;;;;0.40;0.40;;;14.20;99.90;;;;;;5071998;28;20192;-74
2022/05/11 10:11:31;;;;;;;0.50;0.50;;;14.20;99.90;;;;;;5071305;28;20197;-73
2022/05/11 10:23:28;;;;;;;0.55;0.50;;;13.80;99.90;;;;;;5050760;28;20205;-74
2022/05/11 10:26:04;;;;;;;0.70;0.70;;;13.60;99.90;;;;;;5043395;28;20250;-73
2022/05/11 10:29:03;;;;;;;5.57;1.15;;;13.70;99.90;;;;;;5033892;28;20324;-74
2022/05/11 10:31:29;;;;;;;4.60;2.25;;;13.70;99.90;;;;;;5050101;28;20229;-73
2022/05/11 10:34:09;;;;;;;0.45;0.45;;;13.70;99.90;;;;;;5034145;28;20292;-74
2022/05/11 10:36:56;;;;;;;0.40;0.40;;;13.80;99.90;;;;;;5033728;28;20197;-74
2022/05/11 10:39:34;;;;;;;34.67;1.08;;;13.60;99.90;;;;;;5050343;28;20205;-74
2022/05/11 10:42:18;;;;;;;1.85;1.60;;;13.50;99.90;;;;;;5050158;28;20205;-73
2022/05/11 10:44:49;;;;;;;0.57;0.57;;;13.30;99.90;;;;;;5050175;28;20316;-73
2022/05/11 10:47:53;;;;;;;0.70;0.60;;;13.20;99.90;;;;;;5050177;28;20200;-74
2022/05/11 10:50:43;;;;;;;0.90;0.90;;;13.30;99.90;;;;;;5037179;28;20204;-74
2022/05/11 10:53:38;;;;;;;0.45;0.45;;;13.00;99.90;;;;;;5073174;28;20219;-73
2022/05/11 10:56:15;;;;;;;0.50;0.50;;;12.90;99.90;;;;;;5068890;28;20213;-73
2022/05/11 10:59:15;;;;;;;0.95;0.95;;;12.90;99.90;;;;;;5070606;28;20193;-72
2022/05/11 11:01:54;;;;;;;0.60;0.60;;;12.80;99.90;;;;;;5071831;28;20703;-72
2022/05/11 11:04:25;;;;;;;0.98;0.98;;;12.70;99.90;;;;;;5071828;28;20670;-72
2022/05/11 11:07:16;;;;;;;0.50;0.50;;;12.80;99.90;;;;;;5070646;28;20189;-72
2022/05/11 11:10:19;;;;;;;0.50;0.50;;;12.60;99.90;;;;;;5070441;28;20212;-73
2022/05/11 11:13:03;;;;;;;0.63;0.63;;;12.40;99.90;;;;;;5051839;28;20217;-74
2022/05/11 11:15:36;;;;;;;1.58;1.48;;;12.40;99.90;;;;;;5050427;28;20287;-73
2022/05/11 11:18:04;;;;;;;0.40;0.40;;;12.50;99.90;;;;;;5051882;28;20704;-73
2022/05/11 11:20:37;;;;;;;1.58;1.48;;;12.60;99.90;;;;;;5054029;28;20190;-73
2022/05/11 11:23:23;;;;;;;0.50;0.50;;;12.60;99.90;;;;;;5072885;28;20656;-72
2022/05/11 11:25:54;;;;;;;0.70;0.70;;;12.40;99.90;;;;;;5075458;28;20271;-72
2022/05/11 11:28:40;;;;;;;2.13;1.35;;;12.10;99.90;;;;;;5075221;28;20564;-73
2022/05/11 11:31:14;;;;;;;1.45;1.35;;;12.20;99.90;;;;;;5075126;28;20689;-73
2022/05/11 11:34:06;;;;;;;4.07;1.75;;;12.50;99.90;;;;;;5075183;28;20192;-73
2022/05/11 11:36:40;;;;;;;0.70;0.70;;;12.70;99.90;;;;;;5074749;28;20205;-73
2022/05/11 11:39:33;;;;;;;0.60;0.60;;;12.50;99.90;;;;;;5075201;28;20697;-72
2022/05/11 11:42:06;;;;;;;0.70;0.70;;;12.30;99.90;;;;;;5055565;28;20296;-72
2022/05/11 11:44:46;;;;;;;0.70;0.70;;;12.20;99.90;;;;;;5055462;28;20255;-73
2022/05/11 11:47:27;;;;;;;1.27;0.82;;;12.10;99.90;;;;;;5053960;28;20193;-73
2022/05/11 11:50:01;;;;;;;0.80;0.80;;;12.30;99.90;;;;;;5054926;28;20194;-73
2022/05/11 11:52:39;;;;;;;0.70;0.70;;;12.40;99.90;;;;;;5053538;28;20652;-73
2022/05/11 11:55:24;;;;;;;0.85;0.85;;;12.60;99.90;;;;;;5054888;28;20706;-73
2022/05/11 11:58:10;;;;;;;0.60;0.60;;;12.80;99.90;;;;;;5054794;28;20198;-74
2022/05/11 12:00:45;;;;;;;0.68;0.68;;;13.10;99.90;;;;;;5071330;28;20201;-74
2022/05/11 12:03:22;;;;;;;0.70;0.70;;;13.50;99.90;;;;;;5073307;28;20211;-71
2022/05/11 12:05:52;;;;;;;6.95;1.00;;;13.70;99.90;;;;;;5073215;28;20563;-74
2022/05/11 12:16:54;;;;;;;1.10;1.00;;;15.00;99.90;;;;;;5054685;28;20694;-71
2022/05/11 12:19:26;;;;;;;0.55;0.55;;;15.20;99.90;;;;;;5072266;28;20251;-74
2022/05/11 12:22:12;;;;;;;0.73;0.73;;;15.10;99.90;;;;;;5065570;28;20197;-74
2022/05/11 12:25:01;;;;;;;0.73;0.73;;;14.80;99.90;;;;;;5054422;28;20209;-74
2022/05/11 12:27:32;;;;;;;0.50;0.50;;;14.30;99.90;;;;;;5087018;28;20194;-74
2022/05/11 12:30:15;;;;;;;0.80;0.80;;;14.00;99.90;;;;;;5054481;28;20205;-74
2022/05/11 12:32:49;;;;;;;0.40;0.40;;;13.60;99.90;;;;;;5058452;28;20706;-74
2022/05/11 12:35:18;;;;;;;1.45;1.13;;;13.60;99.90;;;;;;5074563;28;20196;-74
2022/05/11 12:37:59;;;;;;;0.70;0.70;;;13.70;99.90;;;;;;5074370;28;20193;-74
2022/05/11 12:40:27;;;;;;;0.77;0.77;;;14.00;99.90;;;;;;5073079;28;20193;-74
2022/05/11 12:42:55;;;;;;;0.50;0.50;;;14.30;99.90;;;;;;5074430;28;20538;-74
2022/05/11 12:45:33;;;;;;;0.50;0.50;;;14.60;99.90;;;;;;5073737;28;20246;-74
2022/05/11 12:47:59;;;;;;;0.70;0.70;;;14.60;99.90;;;;;;5073890;28;20189;-74
2022/05/11 12:50:29;;;;;;;0.30;0.30;;;14.40;99.90;;;;;;5073938;28;20618;-74
2022/05/11 12:53:05;;;;;;;0.63;0.63;;;14.30;99.90;;;;;;5074759;28;20193;-74
2022/05/11 12:55:34;;;;;;;0.70;0.70;;;14.40;99.90;;;;;;5073731;28;20200;-74
2022/05/11 12:58:01;;;;;;;0.60;0.60;;;14.50;99.90;;;;;;5073049;28;20193;-74
2022/05/11 13:00:29;;;;;;;0.45;0.45;;;14.50;99.90;;;;;;5074162;28;20192;-74
2022/05/11 13:02:56;;;;;;;0.98;0.98;;;14.40;99.90;;;;;;5073628;28;20193;-74
2022/05/11 13:05:23;;;;;;;9.38;2.20;;;14.30;99.90;;;;;;5073655;28;20188;-73
2022/05/11 13:08:00;;;;;;;0.63;0.63;;;14.10;99.90;;;;;;5074119;28;20185;-74
2022/05/11 13:10:35;;;;;;;0.35;0.35;;;14.10;99.90;;;;;;5073740;28;20191;-76
2022/05/11 13:13:04;;;;;;;0.60;0.60;;;13.60;99.90;;;;;;5072705;28;20203;-75
2022/05/11 13:15:45;;;;;;;2.17;1.25;;;13.60;99.90;;;;;;5073711;28;20200;-74
2022/05/11 13:18:26;;;;;;;0.60;0.60;;;13.60;99.90;;;;;;5073743;28;20199;-74
2022/05/11 13:20:54;;;;;;;0.50;0.50;;;13.70;99.90;;;;;;5071448;28;20193;-74
2022/05/11 13:23:40;;;;;;;0.50;0.50;;;13.70;99.90;;;;;;5053469;28;20726;-74
2022/05/11 13:26:29;;;;;;;0.40;0.40;;;13.60;99.90;;;;;;5053503;28;20205;-74
2022/05/11 13:29:01;;;;;;;0.60;0.60;;;13.50;99.90;;;;;;5053075;28;20667;-74
2022/05/11 13:31:33;;;;;;;0.63;0.63;;;13.30;99.90;;;;;;5053197;28;20240;-74
2022/05/11 13:34:01;;;;;;;0.57;0.57;;;13.30;99.90;;;;;;5069410;28;20197;-74
2022/05/11 13:36:40;;;;;;;0.43;0.43;;;13.20;99.90;;;;;;5073306;28;20193;-74
2022/05/11 13:39:12;;;;;;;0.82;0.80;;;13.10;99.90;;;;;;5072019;28;20196;-74
2022/05/11 13:42:03;;;;;;;0.65;0.65;;;13.00;99.90;;;;;;5073071;28;20204;-74
2022/05/11 13:44:36;;;;;;;0.40;0.40;;;12.90;99.90;;;;;;5073145;28;20214;-75
2022/05/11 13:50:15;;;;;;;1.77;0.57;;;12.60;99.90;;;;;;5072948;28;20204;-74
2022/05/11 13:52:51;;;;;;;0.70;0.70;;;12.40;99.90;;;;;;5072924;28;20196;-72
2022/05/11 13:55:38;;;;;;;2.38;1.13;;;12.20;99.90;;;;;;5072691;28;20276;-72